Time;durP1;ratioP1;P1;durP2;ratioP2;P2;SDS_P1;SDS_P2;PMS_P1;PMS_P2;Temp;Humidity;BMP_temperature;BMP_pressure;BME280_temperature;BME280_humidity;BME280_pressure;Samples;Min_cycle;Max_cycle;Signal;HPM_P1;HPM_P2
2024/01/16 00:01:30;;;;;;;65.00;34.10;;;;;;;4.13;84.29;98555.75;5077607;28;20044;-63
2024/01/16 00:03:56;;;;;;;64.82;31.25;;;;;;;4.13;84.43;98553.94;5078551;28;20388;-63
2024/01/16 00:06:21;;;;;;;70.50;35.13;;;;;;;4.11;84.83;98558.53;5078248;28;20331;-62
2024/01/16 00:08:47;;;;;;;63.92;34.30;;;;;;;4.15;85.01;98556.41;5078757;28;20036;-62
2024/01/16 00:11:12;;;;;;;65.97;34.25;;;;;;;4.21;84.98;98555.84;5078785;28;20044;-63
2024/01/16 00:13:38;;;;;;;67.88;34.15;;;;;;;4.29;84.52;98552.47;5077389;28;20381;-64
2024/01/16 00:16:04;;;;;;;71.38;35.20;;;;;;;4.32;84.37;98553.00;5077918;28;20038;-62
2024/01/16 00:18:29;;;;;;;64.22;32.60;;;;;;;4.31;83.95;98550.53;5077338;28;20040;-62
2024/01/16 00:20:55;;;;;;;61.65;32.67;;;;;;;4.37;84.29;98561.22;5078460;28;20082;-62
2024/01/16 00:23:21;;;;;;;67.85;35.10;;;;;;;4.39;83.68;98555.84;5076616;28;20318;-62
2024/01/16 00:25:46;;;;;;;71.72;32.47;;;;;;;4.22;84.07;98569.78;5078379;28;20036;-64
2024/01/16 00:28:12;;;;;;;66.40;33.28;;;;;;;4.02;85.27;98558.59;5076407;28;20036;-63
2024/01/16 00:30:38;;;;;;;71.03;33.20;;;;;;;3.81;86.20;98562.31;5077474;28;20066;-62
2024/01/16 00:33:04;;;;;;;70.63;34.65;;;;;;;3.69;87.84;98570.53;5075418;28;20051;-62
2024/01/16 00:35:29;;;;;;;65.30;33.50;;;;;;;3.84;86.98;98561.19;5077468;28;20036;-63
2024/01/16 00:37:55;;;;;;;67.03;32.47;;;;;;;3.79;86.83;98568.69;5077225;28;20056;-62
2024/01/16 00:40:20;;;;;;;68.45;33.70;;;;;;;3.90;86.21;98559.78;5076950;28;20342;-63
2024/01/16 00:42:46;;;;;;;58.55;30.25;;;;;;;3.67;87.19;98554.97;5076573;28;20032;-63
2024/01/16 00:45:11;;;;;;;62.60;32.00;;;;;;;3.61;88.01;98555.56;5077646;28;20043;-62
2024/01/16 00:47:37;;;;;;;64.88;34.55;;;;;;;3.50;88.77;98561.81;5078492;28;20096;-63
2024/01/16 00:50:02;;;;;;;68.82;34.13;;;;;;;3.49;88.49;98549.72;5077584;28;20037;-62
2024/01/16 00:52:28;;;;;;;61.15;31.33;;;;;;;3.57;87.80;98541.13;5078428;28;20078;-63
2024/01/16 00:54:54;;;;;;;56.22;29.92;;;;;;;3.67;87.31;98549.75;5075815;28;20060;-64
2024/01/16 00:57:20;;;;;;;61.22;33.13;;;;;;;3.41;88.33;98543.56;5078390;28;20033;-63
2024/01/16 00:59:46;;;;;;;62.90;32.15;;;;;;;3.29;89.25;98552.56;5075724;28;20326;-62
2024/01/16 01:02:12;;;;;;;73.28;37.17;;;;;;;3.14;89.76;98534.75;5077564;28;20032;-63
2024/01/16 01:04:37;;;;;;;68.63;39.38;;;;;;;3.20;89.82;98522.88;5076083;28;20052;-62
2024/01/16 01:07:03;;;;;;;67.95;37.30;;;;;;;3.30;89.03;98515.78;5078026;28;20107;-62
2024/01/16 01:09:29;;;;;;;64.43;34.58;;;;;;;3.43;88.08;98505.81;5076512;28;20029;-63
2024/01/16 01:11:55;;;;;;;59.60;30.90;;;;;;;3.55;87.11;98514.28;5077049;28;20233;-63
2024/01/16 01:14:20;;;;;;;60.92;29.67;;;;;;;3.31;87.56;98517.44;5076455;28;20036;-62
2024/01/16 01:16:46;;;;;;;56.05;29.33;;;;;;;3.40;87.45;98506.09;5076923;28;20036;-62
2024/01/16 01:19:12;;;;;;;61.25;30.30;;;;;;;3.42;86.37;98511.19;5077155;28;20032;-62
2024/01/16 01:21:38;;;;;;;59.67;29.52;;;;;;;3.50;86.88;98517.34;5077121;28;20044;-63
2024/01/16 01:24:03;;;;;;;51.78;27.40;;;;;;;3.59;86.16;98512.19;5076606;28;20208;-63
2024/01/16 01:26:29;;;;;;;59.72;30.38;;;;;;;3.59;85.73;98505.16;5076201;28;20447;-64
2024/01/16 01:28:54;;;;;;;96.57;43.50;;;;;;;3.52;86.16;98501.47;5077563;28;20040;-63
2024/01/16 01:31:20;;;;;;;98.22;41.25;;;;;;;3.64;85.73;98494.25;5075931;28;20043;-62
2024/01/16 01:33:46;;;;;;;97.57;41.33;;;;;;;3.71;85.12;98490.06;5077953;28;20104;-63
2024/01/16 01:36:11;;;;;;;86.95;39.22;;;;;;;3.79;84.11;98495.38;5074220;28;20028;-63
2024/01/16 01:38:37;;;;;;;87.25;38.03;;;;;;;3.75;83.84;98497.47;5076928;28;20039;-62
2024/01/16 01:41:02;;;;;;;70.70;34.10;;;;;;;3.84;83.49;98504.41;5073061;28;20075;-64
2024/01/16 01:43:28;;;;;;;63.28;31.08;;;;;;;3.74;83.09;98503.66;5076546;28;20044;-65
2024/01/16 01:46:10;;;;;;;66.53;32.08;;;;;;;3.67;84.56;98507.03;5074367;28;20094;-62
2024/01/16 01:48:41;;;;;;;65.30;32.78;;;;;;;3.73;83.81;98519.53;5076747;28;20043;-63
2024/01/16 01:51:08;;;;;;;60.03;30.10;;;;;;;3.67;83.57;98509.66;5076252;28;20559;-62
2024/01/16 01:53:34;;;;;;;66.32;32.13;;;;;;;3.61;83.45;98507.63;5077352;28;20043;-62
2024/01/16 01:56:04;;;;;;;58.53;31.08;;;;;;;3.69;83.92;98510.31;5076460;28;20527;-62
2024/01/16 01:58:29;;;;;;;52.17;27.75;;;;;;;3.69;81.38;98515.56;5076584;28;20028;-63
2024/01/16 02:00:55;;;;;;;62.40;28.70;;;;;;;3.61;80.40;98523.31;5075845;28;20135;-63
2024/01/16 02:03:23;;;;;;;55.80;29.83;;;;;;;3.65;80.46;98520.28;5076354;28;20055;-62
2024/01/16 02:05:49;;;;;;;69.93;34.55;;;;;;;3.63;81.32;98519.59;5075843;28;20108;-63
2024/01/16 02:08:15;;;;;;;63.88;34.83;;;;;;;3.68;81.74;98527.00;5076477;28;20342;-63
2024/01/16 02:10:45;;;;;;;79.10;38.53;;;;;;;3.70;81.49;98512.78;5078030;28;20064;-63
2024/01/16 02:13:11;;;;;;;68.38;35.40;;;;;;;3.74;82.02;98514.13;5075406;28;20044;-64
2024/01/16 02:15:39;;;;;;;70.03;36.58;;;;;;;3.70;82.48;98520.66;5076869;28;20042;-63
2024/01/16 02:18:05;;;;;;;72.60;37.80;;;;;;;3.68;82.82;98519.97;5074930;28;20028;-63
2024/01/16 02:20:31;;;;;;;66.90;37.15;;;;;;;3.51;83.42;98524.22;5076849;28;20032;-62
2024/01/16 02:23:03;;;;;;;68.60;35.08;;;;;;;3.29;85.44;98531.66;5074878;28;20047;-62
2024/01/16 02:25:29;;;;;;;66.05;37.85;;;;;;;3.29;85.58;98523.78;5076551;28;20064;-64
2024/01/16 02:27:55;;;;;;;74.22;40.38;;;;;;;3.25;85.41;98525.88;5075435;28;20100;-64
2024/01/16 02:30:20;;;;;;;63.88;36.80;;;;;;;3.18;86.05;98523.03;5077135;28;20054;-64
2024/01/16 02:32:46;;;;;;;64.28;34.10;;;;;;;3.05;86.97;98519.88;5076155;28;20040;-62
2024/01/16 02:35:11;;;;;;;57.38;32.17;;;;;;;3.29;85.55;98522.00;5075964;28;20044;-62
2024/01/16 02:37:37;;;;;;;61.90;31.42;;;;;;;3.19;86.23;98526.47;5075590;28;20298;-63
2024/01/16 02:40:06;;;;;;;57.45;29.35;;;;;;;3.29;85.61;98515.94;5075184;28;20029;-63
2024/01/16 02:42:36;;;;;;;56.10;29.00;;;;;;;3.42;85.36;98516.41;5074073;28;20092;-63
2024/01/16 02:45:03;;;;;;;62.42;31.33;;;;;;;3.51;84.89;98528.63;5075400;28;20316;-63
2024/01/16 02:47:29;;;;;;;50.35;28.40;;;;;;;3.50;84.94;98526.97;5075602;28;20131;-63
2024/01/16 02:49:55;;;;;;;55.97;29.85;;;;;;;3.67;83.88;98533.22;5075438;28;20347;-63
2024/01/16 02:52:20;;;;;;;53.63;29.58;;;;;;;3.72;83.92;98523.13;5077127;28;20046;-63
2024/01/16 02:54:46;;;;;;;55.58;30.23;;;;;;;3.83;83.12;98525.50;5075298;28;20047;-64
2024/01/16 02:57:12;;;;;;;56.58;28.10;;;;;;;3.82;82.43;98524.69;5076880;28;20036;-63
2024/01/16 02:59:37;;;;;;;57.08;28.80;;;;;;;3.84;82.82;98516.69;5074196;28;20274;-63
2024/01/16 03:02:03;;;;;;;58.05;28.80;;;;;;;3.79;82.66;98526.78;5076004;28;20054;-63
2024/01/16 03:04:29;;;;;;;58.55;30.00;;;;;;;3.71;83.43;98534.56;5074532;28;20100;-62
2024/01/16 03:06:55;;;;;;;58.65;31.15;;;;;;;3.55;84.89;98529.16;5075274;28;20040;-63
2024/01/16 03:09:20;;;;;;;60.28;31.25;;;;;;;3.66;84.58;98529.78;5074187;28;20028;-64
2024/01/16 03:11:46;;;;;;;68.63;34.20;;;;;;;3.66;84.08;98540.25;5071265;28;20398;-62
2024/01/16 03:14:13;;;;;;;66.10;35.60;;;;;;;3.62;84.53;98546.75;5065294;28;20044;-62
2024/01/16 03:16:39;;;;;;;64.18;32.10;;;;;;;3.67;84.02;98548.91;5068327;28;20040;-62
2024/01/16 03:19:05;;;;;;;57.80;31.35;;;;;;;3.69;84.45;98544.34;5066766;28;20060;-62
2024/01/16 03:21:30;;;;;;;64.45;32.80;;;;;;;3.81;83.93;98540.56;5075298;28;20040;-63
2024/01/16 03:23:56;;;;;;;65.85;30.90;;;;;;;3.92;83.38;98550.81;5075770;28;20071;-64
2024/01/16 03:26:22;;;;;;;61.70;30.10;;;;;;;4.01;82.75;98565.63;5075195;28;20040;-63
2024/01/16 03:28:47;;;;;;;58.38;30.65;;;;;;;3.89;82.55;98574.69;5079135;28;20036;-63
2024/01/16 03:31:14;;;;;;;68.10;32.58;;;;;;;3.86;82.58;98569.72;5079029;28;20392;-63
2024/01/16 03:33:41;;;;;;;64.65;32.33;;;;;;;3.72;82.46;98565.81;5079558;28;20134;-62
2024/01/16 03:36:09;;;;;;;60.80;33.45;;;;;;;3.31;84.28;98563.72;5077079;28;20044;-64
2024/01/16 03:38:36;;;;;;;58.40;32.60;;;;;;;3.34;84.85;98553.78;5079574;28;20322;-64
2024/01/16 03:41:03;;;;;;;65.78;32.75;;;;;;;3.30;84.78;98549.81;5079121;28;20119;-63
2024/01/16 03:43:29;;;;;;;60.60;30.45;;;;;;;3.17;85.66;98558.00;5079112;28;20154;-64
2024/01/16 03:45:57;;;;;;;60.70;31.15;;;;;;;3.25;86.05;98570.34;5078998;28;20079;-62
2024/01/16 03:48:23;;;;;;;60.22;29.00;;;;;;;3.33;85.97;98577.47;5079080;28;20298;-62
2024/01/16 03:50:49;;;;;;;59.50;28.90;;;;;;;3.43;85.33;98567.78;5078165;28;20036;-64
2024/01/16 03:53:14;;;;;;;52.03;28.27;;;;;;;3.45;84.61;98584.16;5078849;28;20337;-64
2024/01/16 03:55:40;;;;;;;58.72;29.75;;;;;;;3.49;84.86;98569.81;5079441;28;20049;-62
2024/01/16 03:58:06;;;;;;;53.40;29.27;;;;;;;3.61;84.59;98586.16;5078958;28;20315;-63
2024/01/16 04:00:32;;;;;;;60.60;28.92;;;;;;;3.64;84.31;98575.38;5079202;28;20074;-62
2024/01/16 04:02:57;;;;;;;54.80;31.63;;;;;;;3.55;84.57;98587.56;5076576;28;20032;-62
2024/01/16 04:05:23;;;;;;;59.42;34.35;;;;;;;3.61;84.88;98586.16;5078461;28;20044;-63
2024/01/16 04:07:48;;;;;;;67.10;32.80;;;;;;;3.57;84.94;98575.16;5076916;28;20341;-63
2024/01/16 04:10:14;;;;;;;61.85;31.90;;;;;;;3.62;84.97;98600.88;5078018;28;20028;-63
2024/01/16 04:12:39;;;;;;;62.10;33.55;;;;;;;3.64;84.78;98605.00;5077037;28;20036;-62
2024/01/16 04:15:05;;;;;;;64.15;33.33;;;;;;;3.70;84.47;98612.28;5077978;28;20036;-63
2024/01/16 04:17:31;;;;;;;67.03;32.95;;;;;;;3.56;85.09;98615.38;5076864;28;20082;-63
2024/01/16 04:19:56;;;;;;;61.38;34.63;;;;;;;3.71;85.43;98615.72;5078644;28;20056;-63
2024/01/16 04:22:22;;;;;;;68.03;34.83;;;;;;;3.76;85.03;98630.03;5077702;28;20330;-63
2024/01/16 04:24:47;;;;;;;60.78;31.50;;;;;;;3.67;85.53;98628.28;5077954;28;20024;-63
2024/01/16 04:27:13;;;;;;;73.65;38.63;;;;;;;3.73;84.73;98635.53;5077265;28;20037;-62
2024/01/16 04:29:38;;;;;;;67.38;36.42;;;;;;;3.59;85.18;98640.44;5077700;28;20032;-62
2024/01/16 04:32:04;;;;;;;58.85;31.38;;;;;;;3.49;86.03;98641.31;5078544;28;20024;-62
2024/01/16 04:34:30;;;;;;;58.13;31.20;;;;;;;3.53;86.50;98639.22;5078745;28;20040;-63
2024/01/16 04:36:55;;;;;;;64.65;34.17;;;;;;;3.44;86.56;98645.31;5079537;28;20227;-63
2024/01/16 04:39:22;;;;;;;61.00;32.33;;;;;;;3.43;87.11;98654.16;5075414;28;20036;-63
2024/01/16 04:41:49;;;;;;;64.95;33.50;;;;;;;3.36;87.70;98648.66;5079161;28;20028;-62
2024/01/16 04:44:14;;;;;;;57.88;31.73;;;;;;;3.22;88.70;98646.50;5077697;28;20078;-63
2024/01/16 04:46:40;;;;;;;63.33;33.30;;;;;;;3.25;89.79;98654.06;5078358;28;20040;-63
2024/01/16 04:49:05;;;;;;;64.57;33.60;;;;;;;3.38;88.93;98649.34;5076623;28;20045;-64
2024/01/16 04:51:31;;;;;;;64.57;34.47;;;;;;;3.51;88.57;98662.91;5078209;28;20040;-64
2024/01/16 04:53:56;;;;;;;63.47;33.22;;;;;;;3.63;87.07;98655.72;5076485;28;20036;-63
2024/01/16 04:56:22;;;;;;;68.13;34.70;;;;;;;3.73;86.06;98661.72;5077998;28;20048;-62
2024/01/16 04:58:47;;;;;;;74.43;35.38;;;;;;;3.68;85.89;98678.84;5073548;28;20040;-62
2024/01/16 05:01:13;;;;;;;78.18;38.55;;;;;;;3.69;85.96;98673.47;5064510;28;20040;-63
2024/01/16 05:03:38;;;;;;;77.35;40.35;;;;;;;3.64;86.50;98691.38;5077060;28;20059;-63
2024/01/16 05:06:04;;;;;;;71.63;37.15;;;;;;;3.56;86.62;98695.69;5076792;28;20036;-63
2024/01/16 05:08:30;;;;;;;74.70;41.10;;;;;;;3.73;86.83;98687.91;5077385;28;20077;-62
2024/01/16 05:10:56;;;;;;;83.55;42.35;;;;;;;3.80;85.65;98683.75;5076256;28;20071;-62
2024/01/16 05:13:22;;;;;;;99.40;49.17;;;;;;;3.87;85.12;98678.75;5057973;28;20110;-62
2024/01/16 05:15:47;;;;;;;116.05;53.83;;;;;;;3.95;84.51;98696.34;5059040;28;20350;-63
2024/01/16 05:18:12;;;;;;;120.65;59.85;;;;;;;3.98;84.12;98699.50;5057562;28;20047;-63
2024/01/16 05:20:38;;;;;;;112.13;54.35;;;;;;;4.02;84.07;98703.47;5058945;28;20043;-62
2024/01/16 05:23:04;;;;;;;107.38;53.05;;;;;;;4.09;83.58;98716.81;5074033;28;20086;-62
2024/01/16 05:25:30;;;;;;;100.72;49.67;;;;;;;4.12;83.50;98711.28;5079234;28;20038;-62
2024/01/16 05:27:55;;;;;;;93.60;46.45;;;;;;;4.13;82.62;98721.63;5077014;28;20028;-64
2024/01/16 05:30:21;;;;;;;94.40;47.65;;;;;;;3.95;83.65;98725.16;5078573;28;20045;-62
2024/01/16 05:32:46;;;;;;;81.95;41.10;;;;;;;3.71;85.49;98736.16;5068131;28;20041;-64
2024/01/16 05:35:12;;;;;;;93.13;45.75;;;;;;;3.56;86.27;98741.00;5057871;28;20052;-63
2024/01/16 05:37:37;;;;;;;93.50;46.90;;;;;;;3.55;86.66;98768.16;5057854;28;20040;-62
2024/01/16 05:40:03;;;;;;;83.35;43.92;;;;;;;3.53;87.32;98773.53;5058200;28;20093;-62
2024/01/16 05:42:30;;;;;;;128.80;52.83;;;;;;;3.51;87.58;98780.69;5076767;28;20028;-64
2024/01/16 05:44:55;;;;;;;94.45;43.85;;;;;;;3.61;87.18;98778.06;5076720;28;20059;-64
2024/01/16 05:47:24;;;;;;;93.32;44.53;;;;;;;3.69;86.72;98780.78;5076455;28;20040;-62
2024/01/16 05:49:49;;;;;;;88.65;39.88;;;;;;;3.70;86.50;98779.81;5076401;28;20051;-63
2024/01/16 05:52:14;;;;;;;109.22;46.13;;;;;;;3.87;85.06;98795.75;5077954;28;20291;-62
2024/01/16 05:54:40;;;;;;;76.55;38.58;;;;;;;3.79;84.40;98799.91;5058943;28;20037;-63
2024/01/16 05:57:05;;;;;;;59.03;31.88;;;;;;;3.77;84.28;98806.25;5058296;28;20033;-64
2024/01/16 05:59:31;;;;;;;55.50;28.95;;;;;;;3.87;83.90;98808.84;5057306;28;20036;-64
2024/01/16 06:01:56;;;;;;;46.00;25.27;;;;;;;3.92;83.58;98817.94;5057524;28;20049;-62
2024/01/16 06:04:22;;;;;;;46.33;25.17;;;;;;;4.00;82.88;98825.91;5057149;28;20033;-63
2024/01/16 06:06:47;;;;;;;45.78;25.13;;;;;;;4.08;82.90;98831.25;5057287;28;20094;-63
2024/01/16 06:09:13;;;;;;;44.53;24.02;;;;;;;4.20;82.13;98847.66;5056696;28;20043;-63
2024/01/16 06:11:40;;;;;;;48.17;27.50;;;;;;;4.09;82.23;98853.03;5057067;28;20231;-63
2024/01/16 06:14:07;;;;;;;50.97;26.33;;;;;;;3.49;88.80;98865.56;5063802;28;20040;-63
2024/01/16 06:16:32;;;;;;;62.28;32.05;;;;;;;2.70;95.32;98870.00;5076995;28;20346;-62
2024/01/16 06:18:58;;;;;;;52.67;30.42;;;;;;;2.55;98.03;98882.59;5073949;28;20033;-63
2024/01/16 06:21:24;;;;;;;53.58;29.13;;;;;;;2.50;99.06;98884.78;5056970;28;20098;-62
2024/01/16 06:23:49;;;;;;;56.38;29.13;;;;;;;2.50;99.70;98892.63;5058176;28;20112;-64
2024/01/16 06:26:15;;;;;;;53.28;28.40;;;;;;;2.71;99.53;98910.84;5057243;28;20064;-64
2024/01/16 06:28:42;;;;;;;66.30;34.30;;;;;;;2.83;98.70;98913.22;5057865;28;20033;-63
2024/01/16 06:31:09;;;;;;;107.65;49.97;;;;;;;2.94;97.61;98921.94;5055639;28;20079;-62
2024/01/16 06:33:34;;;;;;;87.22;40.92;;;;;;;2.75;97.70;98912.25;5057406;28;20040;-62
2024/01/16 06:36:01;;;;;;;58.97;29.60;;;;;;;2.85;97.71;98913.09;5070955;28;20489;-63
2024/01/16 06:38:26;;;;;;;45.72;25.50;;;;;;;2.92;97.52;98913.38;5077776;28;20060;-63
2024/01/16 06:40:52;;;;;;;60.72;29.15;;;;;;;2.78;97.58;98922.44;5064603;28;20041;-63
2024/01/16 06:43:18;;;;;;;67.53;32.45;;;;;;;3.10;96.61;98938.75;5057402;28;20037;-62
2024/01/16 06:45:44;;;;;;;55.13;28.95;;;;;;;3.18;95.70;98928.47;5058531;28;20346;-63
2024/01/16 06:48:09;;;;;;;44.22;23.33;;;;;;;3.07;95.50;98933.78;5058614;28;20103;-62
2024/01/16 06:50:35;;;;;;;41.30;20.52;;;;;;;3.27;94.99;98928.63;5059318;28;20044;-62
2024/01/16 06:53:01;;;;;;;36.20;18.98;;;;;;;3.44;93.84;98927.97;5056344;28;20033;-63
2024/01/16 06:55:26;;;;;;;28.65;17.67;;;;;;;3.67;92.73;98931.13;5055482;28;20571;-64
2024/01/16 06:57:52;;;;;;;31.02;16.92;;;;;;;3.78;91.54;98937.06;5056916;28;20033;-62
2024/01/16 07:00:17;;;;;;;39.80;18.55;;;;;;;3.71;91.80;98948.22;5057063;28;20048;-62
2024/01/16 07:02:43;;;;;;;39.13;21.33;;;;;;;3.57;92.96;98962.53;5059897;28;20069;-62
2024/01/16 07:05:09;;;;;;;39.60;19.80;;;;;;;3.60;93.59;98957.03;5060821;28;20033;-63
2024/01/16 07:07:35;;;;;;;27.58;16.63;;;;;;;3.72;92.85;98965.56;5060434;28;20033;-63
2024/01/16 07:10:00;;;;;;;36.20;17.60;;;;;;;3.90;92.41;98971.78;5060114;28;20341;-63
2024/01/16 07:12:26;;;;;;;24.98;14.30;;;;;;;3.92;92.65;98976.88;5060292;28;20044;-64
2024/01/16 07:14:51;;;;;;;26.25;13.90;;;;;;;4.02;92.06;98988.19;5061572;28;20039;-62
2024/01/16 07:17:16;;;;;;;29.50;15.48;;;;;;;4.21;91.47;98990.81;5059537;28;20032;-63
2024/01/16 07:19:42;;;;;;;29.17;16.08;;;;;;;4.19;91.51;98995.34;5061561;28;20414;-63
2024/01/16 07:22:07;;;;;;;23.75;14.13;;;;;;;4.34;90.98;99004.44;5060425;28;20086;-63
2024/01/16 07:24:33;;;;;;;27.63;13.75;;;;;;;4.38;91.49;99013.69;5060824;28;20041;-64
2024/01/16 07:26:58;;;;;;;30.25;14.70;;;;;;;4.51;91.44;99015.16;5060422;28;20052;-62
2024/01/16 07:29:24;;;;;;;30.27;16.02;;;;;;;4.58;91.68;99017.09;5060778;28;20039;-62
2024/01/16 07:31:49;;;;;;;33.03;17.40;;;;;;;4.68;92.28;99017.88;5068940;28;20333;-63
2024/01/16 07:34:19;;;;;;;35.80;19.35;;;;;;;4.80;93.94;99022.00;5079449;28;20044;-63
2024/01/16 07:36:45;;;;;;;27.45;14.73;;;;;;;4.91;98.50;99022.78;5074484;28;20100;-64
2024/01/16 07:39:11;;;;;;;11.20;6.95;;;;;;;5.11;100.00;99032.22;5060124;28;20101;-63
2024/01/16 07:41:36;;;;;;;18.02;9.23;;;;;;;5.30;100.00;99033.97;5059899;28;20045;-62
2024/01/16 07:44:02;;;;;;;23.20;12.13;;;;;;;5.48;100.00;99041.91;5059920;28;20116;-63
2024/01/16 07:46:28;;;;;;;17.60;11.15;;;;;;;5.66;100.00;99048.84;5060535;28;20037;-63
2024/01/16 07:48:54;;;;;;;16.33;10.63;;;;;;;5.81;100.00;99059.66;5059590;28;20064;-64
2024/01/16 07:51:19;;;;;;;14.25;9.23;;;;;;;5.94;100.00;99054.06;5060558;28;20048;-63
2024/01/16 07:53:45;;;;;;;17.13;9.10;;;;;;;6.06;100.00;99064.22;5059178;28;20345;-64
2024/01/16 07:56:11;;;;;;;14.25;7.93;;;;;;;6.17;99.57;99062.34;5060230;28;20112;-64
2024/01/16 07:58:37;;;;;;;12.88;7.07;;;;;;;6.28;99.21;99067.41;5059908;28;20040;-63
2024/01/16 08:01:03;;;;;;;11.85;6.70;;;;;;;6.37;98.75;99077.00;5060298;28;20353;-63
2024/01/16 08:03:28;;;;;;;9.93;6.57;;;;;;;6.46;98.47;99081.34;5070912;28;20032;-63
2024/01/16 08:05:54;;;;;;;12.70;7.57;;;;;;;6.49;97.61;99073.16;5079840;28;20044;-63
2024/01/16 08:08:19;;;;;;;25.13;11.35;;;;;;;6.53;96.12;99079.75;5071008;28;20350;-64
2024/01/16 08:10:45;;;;;;;12.68;7.63;;;;;;;6.65;96.07;99096.97;5059806;28;20029;-64
2024/01/16 08:13:10;;;;;;;14.43;7.85;;;;;;;6.75;95.45;99096.88;5063997;28;20055;-63
2024/01/16 08:15:36;;;;;;;12.85;5.32;;;;;;;6.81;93.05;99112.03;5079470;28;20082;-62
2024/01/16 08:18:02;;;;;;;10.85;6.10;;;;;;;6.87;92.56;99110.59;5077659;28;20035;-63
2024/01/16 08:20:28;;;;;;;8.60;5.22;;;;;;;6.91;91.08;99119.84;5059065;28;20037;-63
2024/01/16 08:22:53;;;;;;;10.65;5.60;;;;;;;6.95;91.14;99123.81;5060379;28;20033;-64
2024/01/16 08:25:18;;;;;;;12.20;6.03;;;;;;;6.90;90.49;99120.81;5058894;28;20048;-64
2024/01/16 08:27:44;;;;;;;15.10;7.50;;;;;;;6.95;89.70;99124.63;5059834;28;20043;-63
2024/01/16 08:30:11;;;;;;;9.85;6.28;;;;;;;6.95;88.82;99134.34;5058463;28;20041;-63
2024/01/16 08:32:36;;;;;;;12.15;5.90;;;;;;;6.95;88.24;99139.59;5059393;28;20289;-63
2024/01/16 08:35:02;;;;;;;8.07;4.55;;;;;;;6.93;88.39;99155.56;5072010;28;20059;-64
2024/01/16 08:37:28;;;;;;;9.98;4.70;;;;;;;6.94;88.17;99167.72;5078058;28;20044;-64
2024/01/16 08:39:53;;;;;;;6.60;4.72;;;;;;;7.00;87.90;99177.66;5068060;28;20045;-63
2024/01/16 08:42:19;;;;;;;6.80;4.75;;;;;;;7.07;87.54;99175.22;5058921;28;20028;-63
2024/01/16 08:44:44;;;;;;;11.20;5.57;;;;;;;7.15;86.90;99193.72;5059213;28;20056;-63
2024/01/16 08:47:10;;;;;;;5.05;3.50;;;;;;;7.24;86.43;99189.34;5058702;28;20036;-64
2024/01/16 08:49:35;;;;;;;7.82;4.40;;;;;;;7.30;85.36;99207.19;5057843;28;20035;-63
2024/01/16 08:52:02;;;;;;;7.53;4.50;;;;;;;7.36;84.89;99206.56;5058422;28;20047;-64
2024/01/16 08:54:28;;;;;;;4.35;3.42;;;;;;;7.43;84.61;99214.66;5058657;28;20275;-63
2024/01/16 08:56:53;;;;;;;20.88;10.75;;;;;;;7.50;83.67;99207.81;5058527;28;20117;-63
2024/01/16 08:59:19;;;;;;;7.80;4.63;;;;;;;7.52;83.38;99219.00;5059477;28;20029;-63
2024/01/16 09:01:44;;;;;;;4.40;4.00;;;;;;;7.60;82.22;99224.34;5076523;28;20235;-64
2024/01/16 09:04:10;;;;;;;9.48;4.78;;;;;;;7.64;81.12;99225.66;5079485;28;20345;-63
2024/01/16 09:06:35;;;;;;;7.80;3.92;;;;;;;7.68;81.37;99219.94;5077922;28;20348;-63
2024/01/16 09:09:03;;;;;;;4.93;4.10;;;;;;;7.73;79.65;99229.19;5078960;28;20033;-63
2024/01/16 09:11:29;;;;;;;10.90;6.20;;;;;;;7.71;78.86;99228.50;5064766;28;20033;-63
2024/01/16 09:13:54;;;;;;;6.22;4.38;;;;;;;7.75;78.84;99220.13;5058541;28;20218;-63
2024/01/16 09:16:20;;;;;;;5.72;4.07;;;;;;;7.85;78.47;99230.56;5068360;28;20047;-64
2024/01/16 09:18:46;;;;;;;6.32;4.05;;;;;;;7.90;77.30;99237.00;5078674;28;20326;-64
2024/01/16 09:21:11;;;;;;;4.40;3.30;;;;;;;7.96;77.28;99240.81;5078237;28;20120;-63
2024/01/16 09:23:37;;;;;;;4.47;3.75;;;;;;;8.09;77.02;99241.22;5078316;28;20246;-63
2024/01/16 09:26:02;;;;;;;5.97;4.07;;;;;;;8.21;77.24;99250.50;5074956;28;20040;-64
2024/01/16 09:28:28;;;;;;;5.65;3.10;;;;;;;8.26;74.54;99252.66;5058043;28;20064;-63
2024/01/16 09:30:55;;;;;;;8.38;3.83;;;;;;;8.35;74.57;99248.31;5057934;28;20093;-64
2024/01/16 09:33:22;;;;;;;15.23;7.30;;;;;;;8.43;74.43;99248.31;5056703;28;20040;-64
2024/01/16 09:35:48;;;;;;;11.43;5.35;;;;;;;8.47;72.69;99261.03;5058662;28;20041;-63
2024/01/16 09:38:13;;;;;;;5.43;3.17;;;;;;;8.47;70.67;99266.31;5057370;28;20044;-63
2024/01/16 09:40:38;;;;;;;3.88;2.75;;;;;;;8.51;69.03;99266.81;5058655;28;20047;-63
2024/01/16 09:43:04;;;;;;;3.15;2.20;;;;;;;8.52;68.88;99271.09;5057512;28;20041;-63
2024/01/16 09:45:30;;;;;;;2.80;2.00;;;;;;;8.55;67.82;99266.34;5059049;28;20048;-63
2024/01/16 09:47:56;;;;;;;4.47;2.78;;;;;;;8.52;66.82;99268.47;5057441;28;20045;-64
2024/01/16 09:50:22;;;;;;;3.75;2.08;;;;;;;8.48;66.30;99281.16;5057848;28;20355;-64
2024/01/16 09:52:49;;;;;;;3.55;2.08;;;;;;;8.47;66.07;99274.22;5057354;28;20048;-63
2024/01/16 09:55:17;;;;;;;5.25;2.40;;;;;;;8.57;66.51;99282.84;5057637;28;20044;-63
2024/01/16 09:57:46;;;;;;;4.20;2.65;;;;;;;8.58;67.32;99288.94;5058262;28;20028;-63
2024/01/16 10:00:12;;;;;;;8.30;3.15;;;;;;;8.62;66.14;99295.56;5057315;28;20366;-63
2024/01/16 10:02:40;;;;;;;6.43;2.40;;;;;;;8.63;65.67;99290.13;5062659;28;20213;-64
2024/01/16 10:05:08;;;;;;;5.18;3.03;;;;;;;8.57;63.15;99292.56;5076737;28;20111;-64
2024/01/16 10:07:35;;;;;;;11.73;6.18;;;;;;;8.49;62.76;99298.66;5061047;28;20043;-63
2024/01/16 10:10:01;;;;;;;3.85;3.10;;;;;;;8.49;63.32;99306.56;5058055;28;20101;-62
2024/01/16 10:12:26;;;;;;;5.15;2.35;;;;;;;8.51;63.50;99309.03;5062208;28;20326;-63
2024/01/16 10:14:53;;;;;;;3.00;1.83;;;;;;;8.51;62.53;99301.13;5063471;28;20260;-63
2024/01/16 10:17:19;;;;;;;3.55;1.98;;;;;;;8.48;63.55;99318.09;5064559;28;20041;-63
2024/01/16 10:19:54;;;;;;;2.53;1.73;;;;;;;8.56;62.58;99323.41;5055378;28;20033;-64
2024/01/16 10:22:22;;;;;;;3.78;1.80;;;;;;;8.59;61.89;99322.25;5058114;28;20051;-64
2024/01/16 10:24:48;;;;;;;3.35;1.90;;;;;;;8.62;61.99;99329.84;5056855;28;20040;-63
2024/01/16 10:27:18;;;;;;;4.10;1.95;;;;;;;8.63;61.78;99316.50;5057248;28;20195;-63
2024/01/16 10:30:10;;;;;;;2.50;1.63;;;;;;;8.66;60.36;99330.38;5057646;28;20222;-63
2024/01/16 10:32:38;;;;;;;5.90;2.00;;;;;;;8.68;58.96;99320.47;5056762;28;20057;-63
2024/01/16 10:35:13;;;;;;;5.57;1.92;;;;;;;8.64;59.39;99323.44;5059752;28;20066;-63
2024/01/16 10:37:54;;;;;;;2.97;1.48;;;;;;;8.66;58.98;99335.66;5080487;28;20096;-62
2024/01/16 10:40:29;;;;;;;3.25;2.28;;;;;;;8.60;59.20;99327.38;5077464;28;20382;-64
2024/01/16 10:43:05;;;;;;;8.18;3.65;;;;;;;8.66;59.93;99325.09;5060492;28;20028;-63
2024/01/16 10:45:32;;;;;;;4.13;2.28;;;;;;;8.69;59.89;99330.88;5059928;28;20061;-63
2024/01/16 10:48:05;;;;;;;6.00;2.67;;;;;;;8.71;59.53;99334.19;5060808;28;20040;-63
2024/01/16 10:50:32;;;;;;;3.67;2.00;;;;;;;8.65;58.71;99332.19;5061937;28;20245;-63
2024/01/16 10:53:01;;;;;;;2.70;2.10;;;;;;;8.63;58.96;99339.44;5061172;28;20050;-63
2024/01/16 10:55:29;;;;;;;3.33;1.83;;;;;;;8.55;58.19;99340.22;5062176;28;20347;-64
2024/01/16 10:57:56;;;;;;;4.00;1.98;;;;;;;8.52;57.70;99334.44;5060752;28;20150;-64
2024/01/16 11:00:23;;;;;;;4.53;2.40;;;;;;;8.53;58.89;99338.72;5061332;28;20045;-63
2024/01/16 11:03:09;;;;;;;4.10;2.58;;;;;;;8.55;59.92;99348.16;5059855;28;20052;-63
2024/01/16 11:05:37;;;;;;;4.05;2.30;;;;;;;8.55;58.53;99353.41;5061743;28;20045;-63
2024/01/16 11:08:06;;;;;;;4.05;2.30;;;;;;;8.48;58.04;99352.41;5077036;28;20285;-63
2024/01/16 11:10:32;;;;;;;2.92;1.95;;;;;;;8.50;58.46;99347.78;5081282;28;20756;-64
2024/01/16 11:13:01;;;;;;;1.90;1.45;;;;;;;8.53;57.44;99349.28;5065624;28;20052;-65
2024/01/16 11:15:31;;;;;;;2.55;1.83;;;;;;;8.56;58.02;99346.31;5061113;28;20084;-63
2024/01/16 11:17:57;;;;;;;4.88;2.08;;;;;;;8.54;57.01;99343.03;5072521;28;20048;-63
2024/01/16 11:20:23;;;;;;;3.08;1.80;;;;;;;8.64;58.93;99349.81;5081524;28;20075;-63
2024/01/16 11:22:50;;;;;;;3.15;1.90;;;;;;;8.71;58.05;99347.38;5071077;28;20036;-63
2024/01/16 11:25:18;;;;;;;5.53;2.70;;;;;;;8.81;58.74;99353.34;5061032;28;20040;-64